Time;durP1;ratioP1;P1;durP2;ratioP2;P2;SDS_P1;SDS_P2;PMS_P1;PMS_P2;Temp;Humidity;BMP_temperature;BMP_pressure;BME280_temperature;BME280_humidity;BME280_pressure;Samples;Min_cycle;Max_cycle;Signal;HPM_P1;HPM_P2
2021/11/15 00:02:53;;;;;;;31.73;13.77;;;7.70;99.90;;;;;;20920628;28;20029;-79
2021/11/15 00:12:54;;;;;;;33.83;14.87;;;7.60;99.90;;;;;;20917609;28;20020;-80
2021/11/15 00:22:55;;;;;;;36.27;14.70;;;7.70;99.90;;;;;;20920348;28;20283;-80
2021/11/15 00:32:55;;;;;;;40.20;14.10;;;7.60;99.90;;;;;;20918024;28;20116;-80
2021/11/15 00:42:57;;;;;;;36.03;16.03;;;7.60;99.90;;;;;;20918380;28;20068;-80
2021/11/15 00:52:58;;;;;;;32.58;14.45;;;7.60;99.90;;;;;;20899793;28;20518;-79
2021/11/15 01:03:00;;;;;;;29.33;14.17;;;7.60;99.90;;;;;;20887637;28;20132;-80
2021/11/15 01:13:02;;;;;;;29.65;13.57;;;7.60;99.90;;;;;;20935749;28;20059;-79
2021/11/15 01:23:05;;;;;;;35.20;14.65;;;7.60;99.90;;;;;;20929011;28;20040;-82
2021/11/15 01:33:06;;;;;;;29.65;13.10;;;7.60;99.90;;;;;;20936040;28;20488;-78
2021/11/15 01:43:07;;;;;;;28.53;13.60;;;7.60;99.90;;;;;;20934976;28;20043;-80
2021/11/15 01:53:09;;;;;;;33.85;13.80;;;7.70;99.90;;;;;;20937449;28;20124;-78
2021/11/15 02:03:12;;;;;;;33.30;12.30;;;7.70;99.90;;;;;;20901393;28;20029;-80
2021/11/15 02:13:15;;;;;;;31.77;13.23;;;7.70;99.90;;;;;;20934219;28;20029;-81
2021/11/15 02:23:18;;;;;;;29.02;12.18;;;7.60;99.90;;;;;;20930628;28;20029;-80
2021/11/15 02:33:19;;;;;;;29.73;12.15;;;7.60;99.90;;;;;;20930437;28;20033;-81
2021/11/15 02:43:20;;;;;;;30.70;12.47;;;7.50;99.90;;;;;;20910661;28;20403;-81
2021/11/15 02:53:21;;;;;;;26.55;12.43;;;7.50;99.90;;;;;;20927553;28;20025;-78
2021/11/15 03:03:23;;;;;;;30.73;13.73;;;7.40;99.90;;;;;;20926116;28;20120;-81
2021/11/15 03:13:25;;;;;;;30.75;13.50;;;7.40;99.90;;;;;;20904300;28;20106;-79
2021/11/15 03:23:31;;;;;;;28.23;13.27;;;7.30;99.90;;;;;;20862294;23;20052;-77
2021/11/15 03:33:33;;;;;;;33.47;12.43;;;7.30;99.90;;;;;;20830800;28;20029;-77
2021/11/15 03:43:35;;;;;;;31.08;12.60;;;7.20;99.90;;;;;;20829013;28;20036;-77
2021/11/15 03:53:38;;;;;;;28.55;12.50;;;7.10;99.90;;;;;;20829737;28;20026;-77
2021/11/15 04:03:44;;;;;;;29.90;12.32;;;7.10;99.90;;;;;;20828319;28;20073;-76
2021/11/15 04:13:47;;;;;;;26.67;12.02;;;7.00;99.90;;;;;;20827732;28;20041;-77
2021/11/15 04:23:48;;;;;;;28.15;12.20;;;7.00;99.90;;;;;;20826520;28;20037;-76
2021/11/15 04:33:49;;;;;;;26.50;11.40;;;6.90;99.90;;;;;;20827123;28;20128;-76
2021/11/15 04:43:50;;;;;;;17.70;8.83;;;6.90;99.90;;;;;;20826041;28;20490;-77
2021/11/15 04:53:50;;;;;;;21.83;9.27;;;6.80;99.90;;;;;;20824494;28;20037;-75
2021/11/15 05:03:51;;;;;;;16.20;7.83;;;6.80;99.90;;;;;;20824052;28;20018;-75
2021/11/15 05:13:52;;;;;;;21.50;8.60;;;6.80;99.90;;;;;;20839770;28;20028;-75
2021/11/15 05:23:54;;;;;;;20.85;9.48;;;6.70;99.90;;;;;;20837451;28;20041;-75
2021/11/15 05:33:54;;;;;;;17.67;8.40;;;6.70;99.90;;;;;;20838012;28;20033;-75
2021/11/15 05:43:55;;;;;;;20.60;8.00;;;6.70;99.90;;;;;;20803354;28;20095;-75
2021/11/15 05:53:57;;;;;;;16.77;7.57;;;6.70;99.90;;;;;;20819106;28;20040;-75
2021/11/15 06:03:58;;;;;;;15.95;6.97;;;6.70;99.90;;;;;;20835735;28;20044;-75
2021/11/15 06:13:59;;;;;;;16.67;6.73;;;6.60;99.90;;;;;;20835159;28;20500;-75
2021/11/15 06:24:01;;;;;;;14.23;6.60;;;6.60;99.90;;;;;;20833936;28;20025;-75
2021/11/15 06:34:02;;;;;;;18.20;7.32;;;6.60;99.90;;;;;;20834567;28;20037;-76
2021/11/15 06:44:05;;;;;;;18.63;7.63;;;6.50;99.90;;;;;;20832841;28;20037;-76
2021/11/15 06:54:06;;;;;;;17.83;8.35;;;6.50;99.90;;;;;;20814662;28;20114;-76
2021/11/15 07:04:09;;;;;;;28.77;12.77;;;6.50;99.90;;;;;;20813816;28;20065;-76
2021/11/15 07:14:10;;;;;;;17.83;7.80;;;6.60;99.90;;;;;;20830924;28;20518;-76
2021/11/15 07:24:10;;;;;;;14.27;6.88;;;6.60;99.90;;;;;;20829968;28;20119;-76
2021/11/15 07:34:11;;;;;;;12.30;6.10;;;6.60;99.90;;;;;;20828742;28;20034;-76
2021/11/15 07:44:12;;;;;;;13.60;6.33;;;6.60;99.90;;;;;;20828829;28;20029;-76
2021/11/15 07:54:13;;;;;;;11.38;5.13;;;6.60;99.90;;;;;;20810474;28;20080;-76
2021/11/15 08:04:14;;;;;;;14.37;6.53;;;6.60;99.90;;;;;;20829837;28;20033;-76
2021/11/15 08:14:16;;;;;;;11.57;6.18;;;6.70;99.90;;;;;;20827494;28;20038;-76
2021/11/15 08:24:17;;;;;;;15.38;6.50;;;6.70;99.90;;;;;;20809712;28;20048;-76
2021/11/15 08:34:18;;;;;;;14.00;6.13;;;6.70;99.90;;;;;;20828061;28;20061;-77
2021/11/15 08:44:20;;;;;;;;;;;6.80;99.90;;;;;;20838427;28;20029;-77
2021/11/15 08:54:22;;;;;;;10.87;5.77;;;6.90;99.90;;;;;;20827720;28;19920;-77
2021/11/15 09:04:23;;;;;;;13.02;5.85;;;6.80;99.90;;;;;;20828303;28;20112;-77
2021/11/15 09:14:23;;;;;;;11.67;5.10;;;7.00;99.90;;;;;;20827686;28;20491;-76
2021/11/15 09:24:25;;;;;;;12.20;5.37;;;7.00;99.90;;;;;;20927621;23;20064;-81
2021/11/15 09:34:26;;;;;;;12.02;5.07;;;7.20;99.90;;;;;;20943185;28;20025;-81
2021/11/15 09:44:28;;;;;;;12.93;4.60;;;7.10;99.90;;;;;;20927311;28;20056;-80
2021/11/15 09:54:29;;;;;;;10.13;4.33;;;7.30;99.90;;;;;;20951983;28;20068;-79
2021/11/15 10:04:30;;;;;;;11.40;4.43;;;7.30;99.90;;;;;;20919712;28;20036;-79
2021/11/15 10:14:31;;;;;;;8.87;4.10;;;7.40;99.90;;;;;;20938158;28;20036;-78
2021/11/15 10:24:39;;;;;;;11.80;5.03;;;7.40;99.90;;;;;;20903254;28;20037;-78
2021/11/15 10:34:54;;;;;;;8.95;4.60;;;7.40;99.90;;;;;;20937352;28;20033;-80
2021/11/15 10:45:01;;;;;;;13.18;5.93;;;7.30;99.90;;;;;;20937067;28;20395;-81
2021/11/15 10:55:05;;;;;;;12.57;5.50;;;7.20;99.90;;;;;;20920318;28;20029;-81
2021/11/15 11:05:08;;;;;;;11.10;5.30;;;7.40;99.90;;;;;;20939436;28;20029;-80
2021/11/15 11:15:18;;;;;;;14.80;6.30;;;7.30;99.90;;;;;;20938848;28;20041;-81
2021/11/15 11:25:25;;;;;;;14.90;5.55;;;7.40;99.90;;;;;;20920754;28;20044;-80
2021/11/15 11:35:26;;;;;;;11.60;6.00;;;7.30;99.90;;;;;;20933501;28;20055;-80
2021/11/15 11:45:27;;;;;;;12.73;6.13;;;7.30;99.90;;;;;;20952848;28;20036;-81
2021/11/15 11:55:33;;;;;;;11.97;5.33;;;7.10;99.90;;;;;;20932034;28;20040;-78
2021/11/15 12:05:33;;;;;;;11.70;5.88;;;7.20;99.90;;;;;;20909227;28;20040;-79
2021/11/15 12:15:39;;;;;;;11.53;5.70;;;7.30;99.90;;;;;;20944087;28;20036;-81
2021/11/15 12:25:58;;;;;;;9.93;4.78;;;7.20;99.90;;;;;;20943047;28;20045;-80
2021/11/15 12:36:35;;;;;;;12.02;5.72;;;7.10;99.90;;;;;;20927190;28;20036;-79
2021/11/15 12:46:42;;;;;;;50.55;18.25;;;7.30;99.90;;;;;;20932155;28;20033;-80
2021/11/15 12:56:44;;;;;;;11.23;5.80;;;7.40;99.90;;;;;;20945517;28;20025;-80
2021/11/15 13:06:46;;;;;;;11.52;5.53;;;7.40;99.90;;;;;;20927159;28;20052;-80
2021/11/15 13:16:47;;;;;;;12.55;5.57;;;7.30;99.90;;;;;;20945440;28;20471;-80
2021/11/15 13:26:50;;;;;;;11.50;4.70;;;7.30;99.90;;;;;;20935185;28;20090;-80
2021/11/15 13:36:51;;;;;;;9.85;5.00;;;7.20;99.90;;;;;;20940461;28;20441;-80
2021/11/15 13:46:52;;;;;;;9.90;5.43;;;7.20;99.90;;;;;;20953803;28;20029;-79
2021/11/15 13:56:53;;;;;;;10.40;5.07;;;7.00;99.90;;;;;;20947488;28;20057;-80
2021/11/15 14:06:54;;;;;;;10.57;5.67;;;7.00;99.90;;;;;;20913848;28;20146;-81
2021/11/15 14:16:55;;;;;;;12.60;6.00;;;6.90;99.90;;;;;;20927273;28;20283;-81
2021/11/15 14:26:56;;;;;;;13.33;5.50;;;6.80;99.90;;;;;;20925504;28;20314;-79
2021/11/15 14:36:57;;;;;;;16.07;6.27;;;6.80;99.90;;;;;;20927471;28;20032;-80
2021/11/15 14:46:58;;;;;;;15.07;5.85;;;6.70;99.90;;;;;;20926664;28;20036;-78
2021/11/15 14:56:59;;;;;;;10.88;5.85;;;6.70;99.90;;;;;;20926325;28;20494;-80
2021/11/15 15:07:03;;;;;;;13.00;6.50;;;6.60;99.90;;;;;;20925413;28;20051;-80
2021/11/15 15:17:07;;;;;;;16.40;6.05;;;6.50;99.90;;;;;;20923345;28;20287;-80
2021/11/15 15:27:08;;;;;;;12.75;6.38;;;6.50;99.90;;;;;;20995332;22;20087;-76
2021/11/15 15:37:09;;;;;;;9.60;5.20;;;6.50;99.90;;;;;;20924006;28;20033;-76
2021/11/15 15:47:10;;;;;;;19.13;5.47;;;6.40;99.90;;;;;;20910705;28;20091;-76
2021/11/15 15:57:11;;;;;;;14.48;7.63;;;6.40;99.90;;;;;;20909562;28;20033;-76
2021/11/15 16:07:28;;;;;;;13.90;6.50;;;6.30;99.90;;;;;;20857869;28;20056;-76
2021/11/15 16:17:39;;;;;;;12.93;6.10;;;6.30;99.90;;;;;;20853954;28;20800;-76
2021/11/15 16:27:40;;;;;;;15.10;6.43;;;6.20;99.90;;;;;;20851463;28;20040;-76
2021/11/15 16:37:41;;;;;;;12.07;5.95;;;6.20;99.90;;;;;;20852195;28;20040;-76
2021/11/15 16:47:48;;;;;;;13.75;6.85;;;6.10;99.90;;;;;;20869931;28;20032;-76
2021/11/15 16:57:56;;;;;;;14.02;7.07;;;6.10;99.90;;;;;;20850875;28;20029;-76
2021/11/15 17:07:58;;;;;;;13.27;6.95;;;6.00;99.90;;;;;;20851281;28;20036;-76
2021/11/15 17:17:59;;;;;;;15.77;6.97;;;6.00;99.90;;;;;;20886013;28;20035;-77
2021/11/15 17:28:01;;;;;;;17.60;7.53;;;6.10;99.90;;;;;;20886373;28;20041;-77
2021/11/15 17:38:02;;;;;;;14.75;7.00;;;6.10;99.90;;;;;;20871023;28;20399;-77
2021/11/15 17:48:04;;;;;;;;;;;6.10;99.90;;;;;;20890526;28;20033;-76
2021/11/15 17:58:12;;;;;;;13.60;6.80;;;6.10;99.90;;;;;;20902816;28;19970;-77
2021/11/15 18:08:13;;;;;;;14.98;7.05;;;6.10;99.90;;;;;;20892764;28;20037;-78
2021/11/15 18:18:19;;;;;;;16.27;7.40;;;6.10;99.90;;;;;;20903583;28;20064;-77
2021/11/15 18:28:20;;;;;;;18.33;7.38;;;6.10;99.90;;;;;;20904861;28;20299;-78
2021/11/15 18:38:21;;;;;;;17.40;7.25;;;6.10;99.90;;;;;;20908603;28;20098;-78
2021/11/15 18:48:26;;;;;;;17.75;8.02;;;6.00;99.90;;;;;;20897250;28;20033;-76
2021/11/15 18:58:27;;;;;;;14.38;7.85;;;6.00;99.90;;;;;;20890364;28;20051;-77
2021/11/15 19:08:40;;;;;;;16.65;7.78;;;6.00;99.90;;;;;;20890781;28;20037;-78
2021/11/15 19:18:43;;;;;;;15.98;7.82;;;6.00;99.90;;;;;;20882195;28;20044;-78
2021/11/15 19:28:45;;;;;;;18.83;8.77;;;5.90;99.90;;;;;;20877657;28;20514;-78
2021/11/15 19:38:46;;;;;;;19.90;9.00;;;5.90;99.90;;;;;;20891362;28;20102;-78
2021/11/15 19:48:47;;;;;;;19.45;9.10;;;5.90;99.90;;;;;;20881941;28;20052;-78
2021/11/15 19:58:51;;;;;;;25.43;9.33;;;5.80;99.90;;;;;;20881643;28;20036;-77
2021/11/15 20:08:53;;;;;;;19.60;8.90;;;5.80;99.90;;;;;;20879751;28;20271;-78
2021/11/15 20:18:54;;;;;;;18.65;8.48;;;5.90;99.90;;;;;;20856523;28;20792;-78
2021/11/15 20:28:55;;;;;;;20.17;8.90;;;5.90;99.90;;;;;;20872740;28;20037;-77
2021/11/15 20:38:56;;;;;;;18.65;9.65;;;5.80;99.90;;;;;;20871787;28;20032;-78
2021/11/15 20:48:57;;;;;;;18.23;8.52;;;5.80;99.90;;;;;;20871961;28;20395;-77
2021/11/15 20:58:58;;;;;;;18.05;8.55;;;5.80;99.90;;;;;;20852745;28;20510;-77
2021/11/15 21:08:59;;;;;;;18.35;8.45;;;5.70;99.90;;;;;;20868516;28;20133;-77
2021/11/15 21:19:01;;;;;;;22.25;8.55;;;5.80;99.90;;;;;;20833060;28;20566;-77
2021/11/15 21:29:04;;;;;;;17.95;8.80;;;5.80;99.90;;;;;;20879779;22;20036;-79
2021/11/15 21:39:07;;;;;;;16.60;7.78;;;5.80;99.90;;;;;;21054392;28;20426;-79
2021/11/15 21:49:08;;;;;;;16.88;8.30;;;5.70;99.90;;;;;;20977254;28;20036;-79
2021/11/15 21:59:09;;;;;;;20.67;9.52;;;5.90;99.90;;;;;;21020776;28;20030;-79
2021/11/15 22:09:10;;;;;;;20.08;9.63;;;5.90;99.90;;;;;;21070458;28;20036;-79
2021/11/15 22:19:11;;;;;;;18.87;9.70;;;5.90;99.90;;;;;;21039562;28;20033;-82
2021/11/15 22:29:12;;;;;;;22.42;9.45;;;5.90;99.90;;;;;;21037663;28;20032;-80
2021/11/15 22:39:13;;;;;;;14.75;8.20;;;6.00;99.90;;;;;;21061533;28;20029;-79
2021/11/15 22:49:14;;;;;;;20.00;10.15;;;5.90;99.90;;;;;;21039609;28;20036;-79
2021/11/15 22:59:15;;;;;;;22.07;9.67;;;5.90;99.90;;;;;;21051955;28;20227;-80
2021/11/15 23:09:16;;;;;;;20.97;8.80;;;5.70;99.90;;;;;;21050737;28;20036;-79
2021/11/15 23:19:17;;;;;;;17.97;9.57;;;5.80;99.90;;;;;;21028169;28;20285;-81
2021/11/15 23:29:20;;;;;;;23.15;10.32;;;5.80;99.90;;;;;;21006175;28;20752;-81
2021/11/15 23:39:20;;;;;;;23.88;9.48;;;5.80;99.90;;;;;;21043262;28;20089;-79
2021/11/15 23:49:23;;;;;;;23.20;10.47;;;5.80;99.90;;;;;;21043656;28;20028;-84
2021/11/15 23:59:24;;;;;;;22.48;9.57;;;5.80;99.90;;;;;;20978947;28;20516;-81
